Time;durP1;ratioP1;P1;durP2;ratioP2;P2;SDS_P1;SDS_P2;PMS_P1;PMS_P2;Temp;Humidity;BMP_temperature;BMP_pressure;BME280_temperature;BME280_humidity;BME280_pressure;Samples;Min_cycle;Max_cycle;Signal;HPM_P1;HPM_P2
2022/04/02 00:01:59;;;;;;;7.43;3.17;;;;;;;;;;4977785;28;20120;-73
2022/04/02 00:04:25;;;;;;;4.90;3.10;;;;;;;;;;4995932;28;20473;-73
2022/04/02 00:06:52;;;;;;;4.60;2.67;;;;;;;;;;4974271;28;20300;-73
2022/04/02 00:09:19;;;;;;;5.50;2.67;;;;;;;;;;4976410;28;20054;-73
2022/04/02 00:11:45;;;;;;;5.00;3.10;;;;;;;;;;4987526;28;20051;-73
2022/04/02 00:14:11;;;;;;;6.05;2.92;;;;;;;;;;4962808;28;20104;-71
2022/04/02 00:16:37;;;;;;;6.20;2.75;;;;;;;;;;4974207;28;20512;-72
2022/04/02 00:19:03;;;;;;;4.95;2.67;;;;;;;;;;4983844;28;20062;-71
2022/04/02 00:21:29;;;;;;;4.32;2.58;;;;;;;;;;4986066;28;20488;-72
2022/04/02 00:23:55;;;;;;;9.10;3.63;;;;;;;;;;4987746;28;20038;-72
2022/04/02 00:26:21;;;;;;;5.85;2.90;;;;;;;;;;4989626;28;20046;-72
2022/04/02 00:28:49;;;;;;;5.72;2.75;;;;;;;;;;4973838;28;20051;-72
2022/04/02 00:31:16;;;;;;;6.43;2.88;;;;;;;;;;4958296;28;20138;-74
2022/04/02 00:33:46;;;;;;;5.75;2.70;;;;;;;;;;4969927;28;20050;-73
2022/04/02 00:36:13;;;;;;;5.90;3.03;;;;;;;;;;4981854;28;20112;-72
2022/04/02 00:38:39;;;;;;;6.75;3.50;;;;;;;;;;4969529;28;20129;-73
2022/04/02 00:41:06;;;;;;;6.88;2.97;;;;;;;;;;4976021;28;20125;-73
2022/04/02 00:43:41;;;;;;;5.50;2.88;;;;;;;;;;4975604;28;20413;-73
2022/04/02 00:46:08;;;;;;;5.57;2.83;;;;;;;;;;4971946;28;20126;-73
2022/04/02 00:48:35;;;;;;;5.13;2.80;;;;;;;;;;4979532;28;20050;-75
2022/04/02 00:51:01;;;;;;;5.32;2.90;;;;;;;;;;4973509;28;20414;-73
2022/04/02 00:53:31;;;;;;;8.18;3.30;;;;;;;;;;4991752;28;20050;-73
2022/04/02 00:55:58;;;;;;;6.22;3.25;;;;;;;;;;4991056;28;20066;-74
2022/04/02 00:58:24;;;;;;;8.88;2.88;;;;;;;;;;4975354;28;20512;-73
2022/04/02 01:00:50;;;;;;;5.50;3.15;;;;;;;;;;4976685;28;20042;-73
2022/04/02 01:03:17;;;;;;;5.47;2.97;;;;;;;;;;4976891;28;20047;-73
2022/04/02 01:05:43;;;;;;;7.70;2.97;;;;;;;;;;4976785;28;20436;-73
2022/04/02 01:08:09;;;;;;;4.63;2.85;;;;;;;;;;4978081;28;20050;-73
2022/04/02 01:10:38;;;;;;;4.97;2.67;;;;;;;;;;4977472;28;20047;-73
2022/04/02 01:13:05;;;;;;;4.35;2.72;;;;;;;;;;4974970;28;20413;-73
2022/04/02 01:15:31;;;;;;;6.90;3.05;;;;;;;;;;4983501;28;20047;-72
2022/04/02 01:17:57;;;;;;;6.50;2.75;;;;;;;;;;4991857;28;20054;-73
2022/04/02 01:20:24;;;;;;;4.57;2.70;;;;;;;;;;4972746;28;20409;-73
2022/04/02 01:22:51;;;;;;;8.27;2.95;;;;;;;;;;4975668;28;20078;-72
2022/04/02 01:25:17;;;;;;;5.30;3.08;;;;;;;;;;4985590;28;20050;-73
2022/04/02 01:27:44;;;;;;;6.00;2.55;;;;;;;;;;4989672;28;20390;-73
2022/04/02 01:30:10;;;;;;;5.90;3.22;;;;;;;;;;4992977;28;20050;-73
2022/04/02 01:32:36;;;;;;;6.32;2.60;;;;;;;;;;4972458;28;20516;-72
2022/04/02 01:35:02;;;;;;;5.05;2.78;;;;;;;;;;4959462;28;20050;-73
2022/04/02 01:37:28;;;;;;;5.55;2.63;;;;;;;;;;4973334;28;20042;-72
2022/04/02 01:39:54;;;;;;;4.82;2.75;;;;;;;;;;4967458;28;20042;-73
2022/04/02 01:42:24;;;;;;;4.63;3.05;;;;;;;;;;4989226;28;20035;-72
2022/04/02 01:44:51;;;;;;;6.07;2.72;;;;;;;;;;4957846;28;20129;-73
2022/04/02 01:47:21;;;;;;;5.45;2.60;;;;;;;;;;4987815;28;20093;-73
2022/04/02 01:49:48;;;;;;;5.93;3.10;;;;;;;;;;4974373;28;20058;-73
2022/04/02 01:52:17;;;;;;;3.90;2.53;;;;;;;;;;4977355;28;20246;-73
2022/04/02 01:54:44;;;;;;;5.88;2.40;;;;;;;;;;4989235;28;20080;-73
2022/04/02 01:57:10;;;;;;;4.10;2.47;;;;;;;;;;4958161;28;20146;-73
2022/04/02 01:59:38;;;;;;;6.18;3.00;;;;;;;;;;4986651;28;20046;-73
2022/04/02 02:02:04;;;;;;;4.35;2.50;;;;;;;;;;4956394;28;20129;-74
2022/04/02 02:04:33;;;;;;;5.82;3.05;;;;;;;;;;4980976;28;20042;-73
2022/04/02 02:06:59;;;;;;;4.30;2.50;;;;;;;;;;4986788;28;20053;-73
2022/04/02 02:09:25;;;;;;;5.65;3.10;;;;;;;;;;4976820;28;20043;-75
2022/04/02 02:11:51;;;;;;;5.22;2.60;;;;;;;;;;4959268;28;20057;-73
2022/04/02 02:14:17;;;;;;;3.97;2.30;;;;;;;;;;4980991;28;20059;-73
2022/04/02 02:16:43;;;;;;;6.82;2.30;;;;;;;;;;4970314;28;20047;-73
2022/04/02 02:19:09;;;;;;;6.18;2.60;;;;;;;;;;4983784;28;20102;-73
2022/04/02 02:21:35;;;;;;;4.03;2.47;;;;;;;;;;4980883;28;20035;-73
2022/04/02 02:24:02;;;;;;;8.82;2.78;;;;;;;;;;4984236;28;20060;-73
2022/04/02 02:26:28;;;;;;;6.10;2.58;;;;;;;;;;4997242;28;20089;-72
2022/04/02 02:28:54;;;;;;;4.65;2.50;;;;;;;;;;4979156;28;20074;-73
2022/04/02 02:31:19;;;;;;;5.63;2.60;;;;;;;;;;4988333;28;20185;-73
2022/04/02 02:36:30;;;;;;;5.70;2.88;;;;;;;;;;4982771;28;20051;-73
2022/04/02 02:38:56;;;;;;;7.20;2.80;;;;;;;;;;4983017;28;20042;-73
2022/04/02 02:41:22;;;;;;;4.25;2.25;;;;;;;;;;4988458;28;20043;-73
2022/04/02 02:43:48;;;;;;;6.70;2.92;;;;;;;;;;4997028;28;20042;-73
2022/04/02 02:46:17;;;;;;;4.35;2.72;;;;;;;;;;4976558;28;20066;-73
2022/04/02 02:48:47;;;;;;;4.30;2.50;;;;;;;;;;4974879;28;20591;-73
2022/04/02 02:51:13;;;;;;;6.70;2.90;;;;;;;;;;4983500;28;20501;-74
2022/04/02 02:53:39;;;;;;;6.10;2.70;;;;;;;;;;4994136;28;20048;-73
2022/04/02 02:56:06;;;;;;;4.28;2.58;;;;;;;;;;4984668;28;20055;-73
2022/04/02 02:58:32;;;;;;;4.57;2.42;;;;;;;;;;4977444;28;20047;-73
2022/04/02 03:00:58;;;;;;;4.95;3.05;;;;;;;;;;4991163;28;20061;-72
2022/04/02 03:03:24;;;;;;;5.43;2.70;;;;;;;;;;4989170;28;20046;-72
2022/04/02 03:05:50;;;;;;;4.93;2.78;;;;;;;;;;4958980;28;20042;-72
2022/04/02 03:08:16;;;;;;;6.72;3.17;;;;;;;;;;4968484;28;20043;-72
2022/04/02 03:10:44;;;;;;;6.07;2.70;;;;;;;;;;4971107;28;20046;-72
2022/04/02 03:13:10;;;;;;;5.75;3.05;;;;;;;;;;4979117;28;20453;-72
2022/04/02 03:15:36;;;;;;;9.13;2.80;;;;;;;;;;4995062;28;20137;-72
2022/04/02 03:18:06;;;;;;;5.72;3.00;;;;;;;;;;4959161;28;20057;-72
2022/04/02 03:20:32;;;;;;;6.18;2.88;;;;;;;;;;4959695;28;20089;-72
2022/04/02 03:22:58;;;;;;;5.40;2.70;;;;;;;;;;4973377;28;20042;-73
2022/04/02 03:25:24;;;;;;;5.18;2.97;;;;;;;;;;4984180;28;20507;-73
2022/04/02 03:27:50;;;;;;;8.27;2.80;;;;;;;;;;4992274;28;20046;-73
2022/04/02 03:30:18;;;;;;;8.65;2.80;;;;;;;;;;4958692;28;20399;-73
2022/04/02 03:32:44;;;;;;;8.32;3.00;;;;;;;;;;4981893;28;20039;-73
2022/04/02 03:35:14;;;;;;;6.25;3.00;;;;;;;;;;4981380;28;20101;-73
2022/04/02 03:37:41;;;;;;;5.90;2.80;;;;;;;;;;4960875;28;20097;-73
2022/04/02 03:40:08;;;;;;;6.30;2.78;;;;;;;;;;4962913;28;20046;-73
2022/04/02 03:42:35;;;;;;;6.75;2.78;;;;;;;;;;4962500;28;20035;-73
2022/04/02 03:45:01;;;;;;;4.22;2.78;;;;;;;;;;4966530;28;20630;-72
2022/04/02 03:47:27;;;;;;;6.07;3.33;;;;;;;;;;4988809;28;20092;-73
2022/04/02 03:49:53;;;;;;;6.45;2.95;;;;;;;;;;4988059;28;20046;-73
2022/04/02 03:52:19;;;;;;;4.63;3.13;;;;;;;;;;4989259;28;20039;-73
2022/04/02 03:54:45;;;;;;;5.93;2.90;;;;;;;;;;4987161;28;20050;-73
2022/04/02 03:57:15;;;;;;;7.28;2.85;;;;;;;;;;4986925;28;20057;-72
2022/04/02 03:59:41;;;;;;;4.00;2.47;;;;;;;;;;4993100;28;20117;-72
2022/04/02 04:02:07;;;;;;;6.13;3.08;;;;;;;;;;4994710;28;20491;-73
2022/04/02 04:04:34;;;;;;;7.07;3.10;;;;;;;;;;4974976;28;20046;-72
2022/04/02 04:07:00;;;;;;;7.78;3.58;;;;;;;;;;4962761;28;20046;-72
2022/04/02 04:09:27;;;;;;;6.30;3.22;;;;;;;;;;4960130;28;20047;-70
2022/04/02 04:11:54;;;;;;;5.57;2.83;;;;;;;;;;4992420;28;20049;-73
2022/04/02 04:14:20;;;;;;;5.78;3.00;;;;;;;;;;4994680;28;20057;-72
2022/04/02 04:16:47;;;;;;;8.73;3.15;;;;;;;;;;4993724;28;20489;-73
2022/04/02 04:19:13;;;;;;;7.43;3.70;;;;;;;;;;4975366;28;20074;-73
2022/04/02 04:21:40;;;;;;;7.20;3.35;;;;;;;;;;4976791;28;20118;-72
2022/04/02 04:24:06;;;;;;;9.38;3.88;;;;;;;;;;4981752;28;20082;-73
2022/04/02 04:26:33;;;;;;;8.10;3.05;;;;;;;;;;4979276;28;20047;-72
2022/04/02 04:28:59;;;;;;;10.75;3.92;;;;;;;;;;4974857;28;20050;-72
2022/04/02 04:31:25;;;;;;;5.97;3.17;;;;;;;;;;4975407;28;20508;-72
2022/04/02 04:33:51;;;;;;;8.00;3.45;;;;;;;;;;4975843;28;20054;-72
2022/04/02 04:36:22;;;;;;;10.55;3.30;;;;;;;;;;4978780;28;20409;-72
2022/04/02 04:38:48;;;;;;;8.63;3.85;;;;;;;;;;4975355;28;20054;-72
2022/04/02 04:41:17;;;;;;;10.95;4.00;;;;;;;;;;4993551;28;20038;-73
2022/04/02 04:43:43;;;;;;;8.75;3.47;;;;;;;;;;4976940;28;20047;-73
2022/04/02 04:46:09;;;;;;;9.05;3.83;;;;;;;;;;4983809;28;20074;-72
2022/04/02 04:48:35;;;;;;;17.17;4.95;;;;;;;;;;4976969;28;20093;-73
2022/04/02 04:51:02;;;;;;;11.20;4.18;;;;;;;;;;4958009;28;20051;-72
2022/04/02 04:53:28;;;;;;;13.48;4.13;;;;;;;;;;4968216;28;20420;-73
2022/04/02 04:55:54;;;;;;;9.07;4.13;;;;;;;;;;4980617;28;20409;-72
2022/04/02 04:58:20;;;;;;;8.63;3.65;;;;;;;;;;4986823;28;20038;-73
2022/04/02 05:00:46;;;;;;;23.02;5.70;;;;;;;;;;4982257;28;20074;-72
2022/04/02 05:03:13;;;;;;;14.13;4.68;;;;;;;;;;4956871;28;20125;-72
2022/04/02 05:05:39;;;;;;;7.25;3.58;;;;;;;;;;4974793;28;20383;-72
2022/04/02 05:08:06;;;;;;;9.30;3.88;;;;;;;;;;4989465;28;20105;-72
2022/04/02 05:10:32;;;;;;;12.85;4.82;;;;;;;;;;4976583;28;20046;-72
2022/04/02 05:12:58;;;;;;;14.65;4.78;;;;;;;;;;4976179;28;20060;-73
2022/04/02 05:15:24;;;;;;;22.73;6.10;;;;;;;;;;4978819;28;20050;-73
2022/04/02 05:17:50;;;;;;;11.13;4.20;;;;;;;;;;4957032;28;20046;-73
2022/04/02 05:20:17;;;;;;;12.75;4.68;;;;;;;;;;4978810;28;20485;-73
2022/04/02 05:22:44;;;;;;;14.40;5.15;;;;;;;;;;4977090;28;20043;-73
2022/04/02 05:25:17;;;;;;;46.67;10.90;;;;;;;;;;4956597;28;20516;-72
2022/04/02 05:27:43;;;;;;;43.15;9.20;;;;;;;;;;4958457;28;20516;-73
2022/04/02 05:30:11;;;;;;;13.63;4.60;;;;;;;;;;4975782;28;20414;-73
2022/04/02 05:32:37;;;;;;;95.10;18.05;;;;;;;;;;4973433;28;20409;-73
2022/04/02 05:35:03;;;;;;;39.25;9.52;;;;;;;;;;4977640;28;20051;-73
2022/04/02 05:37:29;;;;;;;46.17;11.10;;;;;;;;;;4967759;28;20049;-73
2022/04/02 05:39:55;;;;;;;73.22;14.20;;;;;;;;;;4991007;28;20046;-73
2022/04/02 05:42:21;;;;;;;15.88;4.72;;;;;;;;;;4977134;28;20046;-73
2022/04/02 05:44:47;;;;;;;11.50;4.88;;;;;;;;;;4988879;28;20030;-72
2022/04/02 05:47:13;;;;;;;23.08;6.93;;;;;;;;;;4993063;28;20068;-73
2022/04/02 05:49:41;;;;;;;19.70;6.05;;;;;;;;;;4975959;28;20053;-72
2022/04/02 05:52:07;;;;;;;13.77;5.05;;;;;;;;;;4956903;28;20133;-73
2022/04/02 05:54:36;;;;;;;24.83;7.93;;;;;;;;;;4956488;28;20050;-73
2022/04/02 05:57:04;;;;;;;11.95;4.90;;;;;;;;;;4970049;28;20046;-72
2022/04/02 05:59:30;;;;;;;10.52;4.90;;;;;;;;;;4973581;28;20118;-73
2022/04/02 06:01:56;;;;;;;52.70;10.80;;;;;;;;;;4974168;28;20043;-73
2022/04/02 06:04:25;;;;;;;11.30;5.30;;;;;;;;;;4974161;28;20053;-73
2022/04/02 06:06:51;;;;;;;12.60;4.97;;;;;;;;;;4961086;28;20050;-73
2022/04/02 06:09:17;;;;;;;15.75;6.57;;;;;;;;;;4971756;28;20477;-73
2022/04/02 06:11:45;;;;;;;18.88;6.50;;;;;;;;;;4975940;28;20117;-73
2022/04/02 06:14:13;;;;;;;18.70;7.13;;;;;;;;;;4976027;28;20157;-73
2022/04/02 06:16:39;;;;;;;28.17;7.40;;;;;;;;;;4991789;28;20050;-73
2022/04/02 06:19:05;;;;;;;9.98;5.22;;;;;;;;;;4991200;28;20088;-73
2022/04/02 06:21:33;;;;;;;11.93;5.07;;;;;;;;;;4973323;28;20046;-73
2022/04/02 06:24:04;;;;;;;12.18;4.93;;;;;;;;;;4967270;28;20158;-73
2022/04/02 06:26:30;;;;;;;17.27;4.70;;;;;;;;;;4973734;28;20122;-73
2022/04/02 06:28:56;;;;;;;14.52;4.55;;;;;;;;;;4986041;28;20050;-73
2022/04/02 06:31:22;;;;;;;22.50;6.57;;;;;;;;;;4972429;28;20047;-73
2022/04/02 06:33:48;;;;;;;15.98;5.15;;;;;;;;;;4949658;28;20166;-72
2022/04/02 06:36:16;;;;;;;23.10;6.80;;;;;;;;;;4968742;28;20548;-73
2022/04/02 06:38:42;;;;;;;8.55;4.40;;;;;;;;;;4975966;28;20061;-72
2022/04/02 06:41:08;;;;;;;11.95;5.07;;;;;;;;;;4975328;28;20105;-73
2022/04/02 06:43:34;;;;;;;11.35;4.88;;;;;;;;;;4975068;28;20456;-73
2022/04/02 06:46:03;;;;;;;7.68;4.47;;;;;;;;;;4989498;28;20047;-73
2022/04/02 06:48:29;;;;;;;8.57;4.13;;;;;;;;;;4945576;29;20059;-72
2022/04/02 06:50:55;;;;;;;9.57;4.38;;;;;;;;;;4969751;28;20129;-73
2022/04/02 06:53:21;;;;;;;14.52;4.50;;;;;;;;;;4969573;28;20401;-74
2022/04/02 06:55:47;;;;;;;15.63;5.82;;;;;;;;;;4964589;28;20051;-73
2022/04/02 06:58:23;;;;;;;6.22;4.25;;;;;;;;;;4970776;28;20554;-73
2022/04/02 07:00:49;;;;;;;22.55;7.53;;;;;;;;;;4966320;28;20092;-73
2022/04/02 07:03:15;;;;;;;11.32;4.50;;;;;;;;;;4968794;28;20129;-73
2022/04/02 07:05:41;;;;;;;11.60;4.97;;;;;;;;;;4970432;28;20458;-72
2022/04/02 07:08:07;;;;;;;9.52;4.80;;;;;;;;;;4957353;28;20047;-73
2022/04/02 07:10:33;;;;;;;11.02;4.68;;;;;;;;;;4958757;28;20421;-73
2022/04/02 07:12:59;;;;;;;14.52;5.00;;;;;;;;;;4970985;28;20039;-72
2022/04/02 07:15:25;;;;;;;26.90;7.75;;;;;;;;;;4971862;28;20150;-73
2022/04/02 07:17:51;;;;;;;10.82;4.53;;;;;;;;;;4958584;28;20032;-74
2022/04/02 07:20:26;;;;;;;16.85;6.00;;;;;;;;;;4969305;28;20409;-75
2022/04/02 07:22:53;;;;;;;9.60;4.43;;;;;;;;;;4961311;28;20047;-74
2022/04/02 07:25:19;;;;;;;19.95;5.75;;;;;;;;;;4966160;28;20391;-73
2022/04/02 07:27:46;;;;;;;9.10;3.90;;;;;;;;;;4964424;28;20393;-73
2022/04/02 07:30:12;;;;;;;10.68;4.07;;;;;;;;;;4956925;28;20047;-72
2022/04/02 07:32:38;;;;;;;22.08;5.95;;;;;;;;;;4971980;28;20453;-73
2022/04/02 07:35:04;;;;;;;10.60;4.10;;;;;;;;;;4959933;28;20493;-72
2022/04/02 07:37:36;;;;;;;9.57;4.60;;;;;;;;;;4973049;28;20050;-72
2022/04/02 07:40:11;;;;;;;9.65;4.55;;;;;;;;;;4967956;28;20061;-73
2022/04/02 07:42:43;;;;;;;20.20;6.25;;;;;;;;;;4968333;28;20446;-73
2022/04/02 07:45:13;;;;;;;10.45;4.30;;;;;;;;;;4966699;28;20053;-74
2022/04/02 07:47:42;;;;;;;8.65;3.65;;;;;;;;;;4973331;28;20054;-73
2022/04/02 07:50:13;;;;;;;9.70;4.45;;;;;;;;;;4971116;28;20074;-73
2022/04/02 07:52:43;;;;;;;9.30;4.50;;;;;;;;;;4964221;28;20474;-72
2022/04/02 07:55:10;;;;;;;17.63;5.38;;;;;;;;;;4970210;28;20038;-73
2022/04/02 07:57:46;;;;;;;15.10;5.05;;;;;;;;;;4974350;28;20134;-73
2022/04/02 08:00:13;;;;;;;11.52;4.60;;;;;;;;;;4970830;28;20070;-73
2022/04/02 08:02:42;;;;;;;12.93;4.40;;;;;;;;;;4963481;28;20050;-73
2022/04/02 08:05:10;;;;;;;11.95;4.32;;;;;;;;;;4957870;28;20087;-72
2022/04/02 08:07:43;;;;;;;8.68;4.18;;;;;;;;;;4971637;28;20051;-74
2022/04/02 08:10:10;;;;;;;9.77;3.80;;;;;;;;;;4971086;28;20051;-73
2022/04/02 08:12:37;;;;;;;7.82;3.40;;;;;;;;;;4975074;28;20081;-73
2022/04/02 08:15:06;;;;;;;10.35;3.75;;;;;;;;;;4964975;28;20062;-73
2022/04/02 08:17:32;;;;;;;12.63;3.85;;;;;;;;;;4963104;28;20047;-74
2022/04/02 08:19:59;;;;;;;9.63;3.58;;;;;;;;;;4964709;28;20494;-74
2022/04/02 08:22:25;;;;;;;9.07;3.25;;;;;;;;;;4972277;28;20042;-73
2022/04/02 08:24:51;;;;;;;7.50;3.13;;;;;;;;;;4971011;28;20101;-73
2022/04/02 08:27:33;;;;;;;7.63;3.20;;;;;;;;;;4968642;28;20050;-73
2022/04/02 08:30:08;;;;;;;8.52;3.63;;;;;;;;;;4964220;28;20113;-74
2022/04/02 08:32:40;;;;;;;4.80;2.65;;;;;;;;;;4965856;28;20034;-75
2022/04/02 08:35:06;;;;;;;11.75;3.50;;;;;;;;;;4963233;28;20133;-74
2022/04/02 08:37:46;;;;;;;9.82;3.38;;;;;;;;;;4966507;28;20078;-73
2022/04/02 08:40:27;;;;;;;20.20;4.90;;;;;;;;;;4967736;28;20065;-74
2022/04/02 08:43:12;;;;;;;7.28;2.63;;;;;;;;;;4964338;28;20544;-75
2022/04/02 08:45:46;;;;;;;20.98;5.05;;;;;;;;;;4950605;28;20043;-75
2022/04/02 08:48:14;;;;;;;6.53;3.25;;;;;;;;;;4982637;28;20058;-74
2022/04/02 08:50:52;;;;;;;15.18;4.75;;;;;;;;;;4981457;28;20109;-75
2022/04/02 08:53:20;;;;;;;7.20;2.77;;;;;;;;;;4974789;28;20096;-75
2022/04/02 08:55:50;;;;;;;11.38;3.58;;;;;;;;;;4981050;28;20138;-75
2022/04/02 08:58:25;;;;;;;6.82;2.63;;;;;;;;;;4987428;28;20049;-75
2022/04/02 09:01:05;;;;;;;9.52;2.97;;;;;;;;;;4990251;28;20241;-75
2022/04/02 09:03:47;;;;;;;4.20;2.20;;;;;;;;;;4983314;28;20513;-76
2022/04/02 09:06:22;;;;;;;4.35;2.40;;;;;;;;;;4981983;28;20081;-76
2022/04/02 09:09:06;;;;;;;7.57;3.35;;;;;;;;;;4971765;28;20401;-75
2022/04/02 09:11:48;;;;;;;13.05;4.13;;;;;;;;;;4955056;28;20129;-76
2022/04/02 09:14:43;;;;;;;7.55;2.30;;;;;;;;;;4988029;28;20048;-74
2022/04/02 09:17:28;;;;;;;13.00;3.85;;;;;;;;;;4969848;28;20049;-75
2022/04/02 09:20:03;;;;;;;9.27;3.42;;;;;;;;;;4982754;28;20466;-75
2022/04/02 09:22:32;;;;;;;5.60;2.60;;;;;;;;;;4964605;28;20530;-75
2022/04/02 09:25:11;;;;;;;10.02;3.20;;;;;;;;;;4985608;28;20043;-75
2022/04/02 09:27:55;;;;;;;11.48;4.18;;;;;;;;;;4987601;28;20039;-75
2022/04/02 09:30:37;;;;;;;3.40;2.28;;;;;;;;;;4968154;28;20121;-76
2022/04/02 09:33:18;;;;;;;7.75;3.28;;;;;;;;;;4982631;28;20043;-75
2022/04/02 09:35:46;;;;;;;5.55;2.20;;;;;;;;;;4986399;28;20057;-76
2022/04/02 09:38:31;;;;;;;3.92;2.60;;;;;;;;;;4985676;28;20049;-74
2022/04/02 09:41:23;;;;;;;5.50;2.33;;;;;;;;;;4986494;28;20074;-75
2022/04/02 09:43:58;;;;;;;2.58;1.83;;;;;;;;;;4981918;28;20058;-74
2022/04/02 09:46:43;;;;;;;5.45;2.17;;;;;;;;;;4983395;28;20109;-76
2022/04/02 09:49:23;;;;;;;7.75;2.67;;;;;;;;;;4982582;28;20046;-76
2022/04/02 09:51:57;;;;;;;3.63;1.95;;;;;;;;;;4978243;28;20050;-76
2022/04/02 09:54:37;;;;;;;6.05;2.33;;;;;;;;;;4987764;28;20046;-75
2022/04/02 09:57:15;;;;;;;6.57;2.88;;;;;;;;;;4985922;28;20043;-74
2022/04/02 09:59:44;;;;;;;8.95;2.97;;;;;;;;;;4983021;28;20046;-74
2022/04/02 10:02:14;;;;;;;7.28;2.22;;;;;;;;;;4974381;28;20054;-76
2022/04/02 10:04:48;;;;;;;10.23;2.28;;;;;;;;;;4971721;28;20041;-72
2022/04/02 10:07:24;;;;;;;10.07;2.30;;;;;;;;;;4988607;28;20061;-75
2022/04/02 10:09:53;;;;;;;4.90;2.00;;;;;;;;;;4982746;28;20046;-74
2022/04/02 10:12:20;;;;;;;4.43;1.70;;;;;;;;;;4967247;28;20381;-75
2022/04/02 10:14:46;;;;;;;6.90;1.80;;;;;;;;;;4986994;28;20414;-75
2022/04/02 10:17:12;;;;;;;8.48;2.22;;;;;;;;;;4983937;28;20042;-74
2022/04/02 10:19:39;;;;;;;4.82;2.10;;;;;;;;;;4983919;28;20515;-74
2022/04/02 10:22:06;;;;;;;10.80;2.65;;;;;;;;;;4987715;28;20046;-75
2022/04/02 10:24:39;;;;;;;4.28;2.00;;;;;;;;;;4967032;28;20042;-75
2022/04/02 10:27:07;;;;;;;5.78;2.00;;;;;;;;;;4985171;28;20050;-74
2022/04/02 10:29:45;;;;;;;3.70;2.03;;;;;;;;;;4994676;28;20046;-75
2022/04/02 10:32:30;;;;;;;5.63;2.33;;;;;;;;;;4982608;28;20047;-76
2022/04/02 10:34:59;;;;;;;4.10;1.83;;;;;;;;;;4979893;28;20057;-75
2022/04/02 10:37:28;;;;;;;5.25;2.00;;;;;;;;;;4985208;28;20097;-76
2022/04/02 10:40:00;;;;;;;7.78;2.10;;;;;;;;;;4987925;28;20051;-75
2022/04/02 10:42:30;;;;;;;8.38;2.05;;;;;;;;;;4974451;28;20536;-76
2022/04/02 10:45:00;;;;;;;4.05;1.77;;;;;;;;;;4984936;28;20047;-75
2022/04/02 10:47:30;;;;;;;4.78;1.95;;;;;;;;;;4960075;28;20065;-75
2022/04/02 10:50:07;;;;;;;3.97;1.65;;;;;;;;;;4982855;28;20148;-75
2022/04/02 10:52:34;;;;;;;3.38;1.80;;;;;;;;;;4982364;28;20070;-75
2022/04/02 10:55:01;;;;;;;4.75;1.83;;;;;;;;;;4979482;28;20061;-76
2022/04/02 10:57:28;;;;;;;6.40;2.55;;;;;;;;;;4976233;28;20043;-74
2022/04/02 10:59:59;;;;;;;10.95;2.70;;;;;;;;;;4960212;28;20043;-75
2022/04/02 11:02:33;;;;;;;6.85;1.90;;;;;;;;;;4978193;28;20105;-74
2022/04/02 11:05:03;;;;;;;7.90;2.53;;;;;;;;;;4976563;28;20050;-74
2022/04/02 11:07:35;;;;;;;4.07;1.70;;;;;;;;;;4989962;28;20038;-75
2022/04/02 11:10:01;;;;;;;4.03;1.90;;;;;;;;;;4987276;28;20043;-74
2022/04/02 11:12:39;;;;;;;5.20;1.95;;;;;;;;;;4991144;28;20046;-76
2022/04/02 11:15:09;;;;;;;3.60;2.00;;;;;;;;;;4974756;28;20055;-75
2022/04/02 11:17:37;;;;;;;2.25;1.50;;;;;;;;;;4964997;28;20117;-76
2022/04/02 11:20:09;;;;;;;3.05;1.70;;;;;;;;;;4990516;28;20479;-75
2022/04/02 11:22:48;;;;;;;3.28;1.48;;;;;;;;;;4978467;28;20189;-75
2022/04/02 11:25:14;;;;;;;;;;;;;;;;;;4988997;28;20043;-75
2022/04/02 11:27:40;;;;;;;5.40;1.63;;;;;;;;;;4971614;28;19929;-76
2022/04/02 11:30:08;;;;;;;2.42;1.30;;;;;;;;;;4982459;28;20054;-75
2022/04/02 11:32:39;;;;;;;5.93;1.60;;;;;;;;;;4978496;28;20517;-75
2022/04/02 11:35:10;;;;;;;3.83;1.52;;;;;;;;;;4979353;28;20409;-76
2022/04/02 11:37:43;;;;;;;8.65;2.40;;;;;;;;;;5011208;28;20623;-75
2022/04/02 11:40:12;;;;;;;3.83;2.17;;;;;;;;;;5007781;28;20053;-75
2022/04/02 11:42:45;;;;;;;6.22;1.92;;;;;;;;;;4996065;28;20058;-76
2022/04/02 11:45:16;;;;;;;6.45;2.25;;;;;;;;;;4977965;28;20164;-75
2022/04/02 11:47:47;;;;;;;3.38;1.50;;;;;;;;;;4975404;28;20142;-75
2022/04/02 11:50:13;;;;;;;9.95;2.67;;;;;;;;;;4974617;28;20050;-75
2022/04/02 11:52:50;;;;;;;7.75;2.42;;;;;;;;;;4978476;28;20050;-76
2022/04/02 11:55:16;;;;;;;3.85;1.60;;;;;;;;;;4995859;28;20114;-76
2022/04/02 11:58:02;;;;;;;5.50;1.70;;;;;;;;;;4986996;28;20054;-75
2022/04/02 12:00:29;;;;;;;8.82;2.33;;;;;;;;;;4945666;28;20129;-75
2022/04/02 12:02:55;;;;;;;3.63;1.60;;;;;;;;;;4993323;28;20046;-75
2022/04/02 12:05:21;;;;;;;8.00;2.00;;;;;;;;;;4974405;28;20070;-73
2022/04/02 12:07:48;;;;;;;5.35;1.85;;;;;;;;;;4976136;28;20046;-74
2022/04/02 12:10:16;;;;;;;3.35;1.90;;;;;;;;;;4979433;28;20134;-75
2022/04/02 12:12:46;;;;;;;9.98;2.33;;;;;;;;;;4983874;28;20497;-74
2022/04/02 12:15:13;;;;;;;7.15;1.80;;;;;;;;;;4977431;28;20057;-74
2022/04/02 12:17:39;;;;;;;7.25;1.65;;;;;;;;;;4978596;28;20039;-74
2022/04/02 12:20:07;;;;;;;4.10;1.90;;;;;;;;;;4979938;28;20412;-74
2022/04/02 12:22:35;;;;;;;55.75;8.80;;;;;;;;;;4979193;28;20047;-75
2022/04/02 12:25:06;;;;;;;4.35;1.80;;;;;;;;;;4990999;28;20053;-74
2022/04/02 12:27:33;;;;;;;3.60;1.70;;;;;;;;;;4983504;28;20057;-75
2022/04/02 12:30:00;;;;;;;4.35;2.00;;;;;;;;;;4993058;28;20050;-74
2022/04/02 12:32:28;;;;;;;7.07;2.22;;;;;;;;;;4983815;28;20486;-73
2022/04/02 12:35:05;;;;;;;6.03;1.90;;;;;;;;;;4993796;28;20064;-75
2022/04/02 12:37:33;;;;;;;5.22;1.65;;;;;;;;;;4979880;28;20282;-74
2022/04/02 12:39:59;;;;;;;4.95;1.58;;;;;;;;;;4978743;28;20478;-74
2022/04/02 12:42:36;;;;;;;5.78;1.98;;;;;;;;;;4963431;28;20074;-75
2022/04/02 12:45:05;;;;;;;8.77;2.45;;;;;;;;;;4983048;28;20165;-75
2022/04/02 12:47:32;;;;;;;6.38;2.22;;;;;;;;;;4991853;28;20050;-74
2022/04/02 12:50:09;;;;;;;8.13;2.00;;;;;;;;;;4992651;28;20128;-74
2022/04/02 12:52:43;;;;;;;5.55;1.90;;;;;;;;;;4984298;28;20100;-74
2022/04/02 12:55:16;;;;;;;6.28;1.73;;;;;;;;;;4957231;28;20050;-74
2022/04/02 12:57:45;;;;;;;12.07;3.03;;;;;;;;;;4970878;28;20485;-74
2022/04/02 13:00:24;;;;;;;3.40;2.00;;;;;;;;;;4975627;28;20056;-73
2022/04/02 13:02:55;;;;;;;7.53;1.83;;;;;;;;;;4991994;28;20038;-74
2022/04/02 13:05:23;;;;;;;7.13;1.75;;;;;;;;;;4957630;28;20054;-74
2022/04/02 13:07:55;;;;;;;2.70;1.33;;;;;;;;;;4977927;28;20038;-74
2022/04/02 13:10:21;;;;;;;5.50;1.80;;;;;;;;;;4985163;28;20046;-74
2022/04/02 13:12:52;;;;;;;3.75;1.88;;;;;;;;;;4979486;28;20042;-74
2022/04/02 13:15:19;;;;;;;5.75;1.60;;;;;;;;;;4983163;28;20350;-74
2022/04/02 13:20:28;;;;;;;5.72;2.38;;;;;;;;;;4959307;28;20050;-73
2022/04/02 13:20:35;;;;;;;4.50;1.70;;;;;;;;;;4975744;28;20428;-74
2022/04/02 13:23:03;;;;;;;3.88;1.73;;;;;;;;;;4982340;28;20117;-74
2022/04/02 13:25:29;;;;;;;5.60;1.67;;;;;;;;;;4958091;28;20049;-73
2022/04/02 13:28:14;;;;;;;3.72;1.77;;;;;;;;;;4978078;28;20042;-74
2022/04/02 13:30:41;;;;;;;2.20;1.50;;;;;;;;;;4987998;28;20044;-75
2022/04/02 13:33:16;;;;;;;4.22;1.35;;;;;;;;;;4963668;28;20119;-74
2022/04/02 13:35:44;;;;;;;2.15;1.17;;;;;;;;;;4974271;28;20066;-75
2022/04/02 13:38:18;;;;;;;3.78;1.50;;;;;;;;;;4986102;28;20112;-74
2022/04/02 13:40:45;;;;;;;5.22;1.70;;;;;;;;;;4980703;28;20053;-75
2022/04/02 13:43:16;;;;;;;2.25;1.40;;;;;;;;;;4985743;28;20058;-75
2022/04/02 13:45:43;;;;;;;3.13;1.80;;;;;;;;;;4988066;28;20511;-74
2022/04/02 13:48:10;;;;;;;47.88;7.78;;;;;;;;;;4988850;28;20464;-75
2022/04/02 13:50:38;;;;;;;4.22;1.80;;;;;;;;;;4982241;28;20054;-75
2022/04/02 13:53:05;;;;;;;4.07;1.92;;;;;;;;;;4969833;28;20552;-75
2022/04/02 13:55:32;;;;;;;6.28;1.88;;;;;;;;;;4975991;28;20070;-74
2022/04/02 13:58:03;;;;;;;3.78;1.70;;;;;;;;;;4979897;28;20035;-74
2022/04/02 14:00:34;;;;;;;7.07;2.42;;;;;;;;;;4969878;28;20101;-74
2022/04/02 14:03:04;;;;;;;7.80;3.03;;;;;;;;;;4970288;28;20437;-75
2022/04/02 14:05:32;;;;;;;7.88;2.42;;;;;;;;;;4960368;28;20060;-75
2022/04/02 14:08:06;;;;;;;3.28;1.90;;;;;;;;;;4991669;28;20046;-75
2022/04/02 14:10:39;;;;;;;6.63;1.80;;;;;;;;;;4969575;28;20055;-76
2022/04/02 14:13:11;;;;;;;3.92;1.48;;;;;;;;;;4976472;28;20374;-77
2022/04/02 14:15:39;;;;;;;3.22;1.40;;;;;;;;;;4991735;28;20108;-75
2022/04/02 14:18:08;;;;;;;5.97;1.77;;;;;;;;;;4974506;28;20042;-75
2022/04/02 14:20:34;;;;;;;4.05;1.65;;;;;;;;;;4963576;28;20038;-74
2022/04/02 14:23:04;;;;;;;7.72;1.40;;;;;;;;;;4990933;28;20077;-75
2022/04/02 14:25:49;;;;;;;4.53;1.65;;;;;;;;;;4980036;28;20034;-74
2022/04/02 14:28:18;;;;;;;4.85;1.55;;;;;;;;;;4992088;28;20045;-76
2022/04/02 14:30:44;;;;;;;;;;;;;;;;;;4963276;28;20093;-75
2022/04/02 14:33:48;;;;;;;3.20;1.30;;;;;;;;;;4992341;28;20328;-75
2022/04/02 14:36:39;;;;;;;4.07;1.33;;;;;;;;;;4908656;29;20052;-75
2022/04/02 14:39:21;;;;;;;3.47;1.50;;;;;;;;;;4899744;29;20048;-74
2022/04/02 14:42:06;;;;;;;12.85;3.60;;;;;;;;;;4901364;29;20636;-75
2022/04/02 14:44:47;;;;;;;1.98;1.40;;;;;;;;;;4901565;29;20056;-73
2022/04/02 14:47:16;;;;;;;4.65;1.40;;;;;;;;;;4895185;29;20238;-74
2022/04/02 14:50:01;;;;;;;6.65;2.42;;;;;;;;;;4901466;29;20142;-74
2022/04/02 14:52:30;;;;;;;4.68;1.65;;;;;;;;;;4912745;29;20052;-74
2022/04/02 14:54:56;;;;;;;2.22;1.52;;;;;;;;;;4896674;29;20064;-74
2022/04/02 14:57:44;;;;;;;6.75;2.00;;;;;;;;;;4909297;29;20044;-74